PST,Max TemperatureF,Mean TemperatureF,Min TemperatureF,Max Dew PointF,MeanDew PointF,Min DewpointF,Max Humidity, Mean Humidity, Min Humidity, Max Sea Level PressureIn, Mean Sea Level PressureIn, Min Sea Level PressureIn, Max VisibilityMiles, Mean VisibilityMiles, Min VisibilityMiles, Max Wind SpeedMPH, Mean Wind SpeedMPH, Max Gust SpeedMPH,PrecipitationIn, CloudCover, Events, WindDirDegrees
2011-11-1,48,40,32,39,36,30,93,79,66,30.58,30.52,30.43,20,16,15,8,4,,0.00,6,,144
2011-11-2,46,39,32,43,38,30,100,87,66,30.14,29.86,29.75,20,14,6,13,4,21,0.00,7,Fog-Rain,147
2011-11-3,48,42,35,39,36,34,93,80,62,29.94,29.88,29.83,20,18,15,5,1,,0.00,3,Rain,311
2011-11-4,48,42,35,36,34,32,93,76,62,29.98,29.94,29.91,20,20,20,7,4,,0.00,5,,316
2011-11-5,46,38,30,39,33,28,93,84,62,29.87,29.84,29.82,20,17,15,6,1,,0.00,7,,123
2011-11-6,46,39,32,39,35,28,93,84,66,30.16,30.06,29.96,20,20,20,6,1,,0.00,6,Fog,25
2011-11-7,48,42,37,41,39,36,93,88,76,30.18,30.15,30.13,20,17,15,9,2,,0.00,7,Fog-Rain,177
2011-11-8,46,42,39,45,43,39,100,94,87,30.26,30.24,30.23,15,6,2,7,2,,0.00,8,Rain,110
2011-11-9,51,48,46,46,45,43,93,86,76,30.24,30.18,30.13,15,14,10,5,2,,0.00,8,Rain,114
2011-11-10,53,45,37,46,42,36,100,87,72,30.11,30.04,29.94,20,12,1,5,1,,0.00,4,Fog,126
2011-11-11,53,47,41,46,38,28,93,77,53,29.66,29.52,29.44,20,16,10,28,7,44,0.00,5,Rain,265
2011-11-12,42,38,35,39,37,30,93,88,81,29.81,29.68,29.55,20,13,10,10,2,,0.00,8,Rain,148
2011-11-13,50,41,32,39,35,28,93,81,62,29.81,29.78,29.76,20,20,20,7,3,,0.00,6,,250
2011-11-14,46,39,30,32,30,27,87,66,46,30.09,30.00,29.90,20,18,10,13,7,,0.00,3,,297
2011-11-15,44,35,26,34,30,23,93,79,61,30.32,30.30,30.22,20,20,20,8,3,,0.00,3,,188
2011-11-16,42,38,33,41,35,32,100,88,70,30.13,29.79,29.45,20,7,2,15,8,,0.00,7,Fog-Rain-Snow,143
2011-11-17,42,37,32,34,31,27,93,75,53,29.76,29.68,29.58,20,16,10,13,4,,0.00,5,Rain,164
2011-11-18,39,34,28,34,31,27,100,88,81,29.77,29.70,29.61,20,11,2,7,2,,0.00,6,Rain-Snow,310
2011-11-19,39,32,24,32,28,23,93,86,65,29.97,29.90,29.84,20,15,0,5,1,,0.00,3,Fog,169
2011-11-20,37,30,24,30,28,21,87,78,70,29.99,29.91,29.83,20,20,20,8,3,,0.00,7,,144
2011-11-21,44,40,37,43,39,34,93,89,87,29.63,29.55,29.39,20,10,4,20,9,30,0.00,7,Rain,157
2011-11-22,48,44,39,43,39,37,93,83,71,29.58,29.52,29.43,20,15,8,16,7,22,0.00,6,Fog-Rain,156
2011-11-23,46,40,32,39,35,30,93,90,76,29.78,29.63,29.43,20,17,10,6,2,,0.00,4,Fog,230
2011-11-24,42,40,39,39,38,34,93,87,76,29.70,29.52,29.38,20,12,4,18,10,25,0.00,7,Rain,158
2011-11-25,46,38,30,36,32,27,87,72,53,30.39,30.31,30.12,20,18,15,12,3,,0.00,5,,164
2011-11-26,51,44,41,48,44,39,93,93,88,30.26,30.15,29.97,15,5,2,15,8,28,0.00,8,Rain,139
2011-11-27,55,48,41,48,43,37,94,85,63,30.30,30.01,29.76,20,15,2,17,7,23,0.00,6,Fog-Rain,260
2011-11-28,46,40,33,36,34,32,93,84,62,30.52,30.49,30.47,20,20,20,6,1,,0.00,6,,167
2011-11-29,42,38,35,39,38,34,100,91,87,30.36,30.21,30.12,15,9,3,12,4,18,0.00,8,Fog-Rain,126
2011-11-30,48,40,32,37,35,30,93,82,66,30.81,30.70,30.48,20,18,15,13,6,20,0.00,1,,332